sensor_id;sensor_type;location;lat;lon;timestamp;temperature;humidity
9808;DHT22;4943;52.550;13.462;2022-11-20T00:01:29;4.80;99.90
9808;DHT22;4943;52.550;13.462;2022-11-20T00:03:59;4.80;99.90
9808;DHT22;4943;52.550;13.462;2022-11-20T00:06:28;4.80;99.90
9808;DHT22;4943;52.550;13.462;2022-11-20T00:08:58;4.80;99.90
9808;DHT22;4943;52.550;13.462;2022-11-20T00:11:30;4.80;99.90
9808;DHT22;4943;52.550;13.462;2022-11-20T00:14:01;4.80;99.90
9808;DHT22;4943;52.550;13.462;2022-11-20T00:16:31;4.80;99.90
9808;DHT22;4943;52.550;13.462;2022-11-20T00:19:00;4.90;99.90
9808;DHT22;4943;52.550;13.462;2022-11-20T00:21:29;4.80;99.90
9808;DHT22;4943;52.550;13.462;2022-11-20T00:23:58;4.80;99.90
9808;DHT22;4943;52.550;13.462;2022-11-20T00:26:27;4.80;99.90
9808;DHT22;4943;52.550;13.462;2022-11-20T00:28:58;4.80;99.90
9808;DHT22;4943;52.550;13.462;2022-11-20T00:31:28;4.80;99.90
9808;DHT22;4943;52.550;13.462;2022-11-20T00:33:57;4.80;99.90
9808;DHT22;4943;52.550;13.462;2022-11-20T00:36:27;4.80;99.90
9808;DHT22;4943;52.550;13.462;2022-11-20T00:38:57;4.80;99.90
9808;DHT22;4943;52.550;13.462;2022-11-20T00:41:26;4.80;99.90
9808;DHT22;4943;52.550;13.462;2022-11-20T00:43:56;4.80;99.90
9808;DHT22;4943;52.550;13.462;2022-11-20T00:46:26;4.80;99.90
9808;DHT22;4943;52.550;13.462;2022-11-20T00:48:56;4.70;99.90
9808;DHT22;4943;52.550;13.462;2022-11-20T00:51:25;4.70;99.90
9808;DHT22;4943;52.550;13.462;2022-11-20T00:53:55;4.70;99.90
9808;DHT22;4943;52.550;13.462;2022-11-20T00:56:24;4.70;99.90
9808;DHT22;4943;52.550;13.462;2022-11-20T00:58:52;4.70;99.90
9808;DHT22;4943;52.550;13.462;2022-11-20T01:01:22;4.70;99.90
9808;DHT22;4943;52.550;13.462;2022-11-20T01:03:53;4.70;99.90
9808;DHT22;4943;52.550;13.462;2022-11-20T01:06:24;4.70;99.90
9808;DHT22;4943;52.550;13.462;2022-11-20T01:08:54;4.70;99.90
9808;DHT22;4943;52.550;13.462;2022-11-20T01:11:25;4.70;99.90
9808;DHT22;4943;52.550;13.462;2022-11-20T01:13:54;4.70;99.90
9808;DHT22;4943;52.550;13.462;2022-11-20T01:16:24;4.70;99.90
9808;DHT22;4943;52.550;13.462;2022-11-20T01:18:55;4.80;99.90
9808;DHT22;4943;52.550;13.462;2022-11-20T01:21:27;4.80;99.90
9808;DHT22;4943;52.550;13.462;2022-11-20T01:23:57;4.80;99.90
9808;DHT22;4943;52.550;13.462;2022-11-20T01:26:26;4.80;99.90
9808;DHT22;4943;52.550;13.462;2022-11-20T01:28:56;4.80;99.90
9808;DHT22;4943;52.550;13.462;2022-11-20T01:31:26;4.80;99.90
9808;DHT22;4943;52.550;13.462;2022-11-20T01:33:57;4.80;99.90
9808;DHT22;4943;52.550;13.462;2022-11-20T01:36:28;4.80;99.90
9808;DHT22;4943;52.550;13.462;2022-11-20T01:38:58;4.80;99.90
9808;DHT22;4943;52.550;13.462;2022-11-20T01:41:29;4.80;99.90
9808;DHT22;4943;52.550;13.462;2022-11-20T01:44:17;4.80;99.90
9808;DHT22;4943;52.550;13.462;2022-11-20T01:46:52;4.80;99.90
9808;DHT22;4943;52.550;13.462;2022-11-20T01:49:25;4.90;99.90
9808;DHT22;4943;52.550;13.462;2022-11-20T01:51:58;4.90;99.90
9808;DHT22;4943;52.550;13.462;2022-11-20T01:54:33;4.80;99.90
9808;DHT22;4943;52.550;13.462;2022-11-20T01:57:03;4.80;99.90
9808;DHT22;4943;52.550;13.462;2022-11-20T01:59:33;4.80;99.90
9808;DHT22;4943;52.550;13.462;2022-11-20T02:02:03;4.80;99.90
9808;DHT22;4943;52.550;13.462;2022-11-20T02:04:32;4.80;99.90
9808;DHT22;4943;52.550;13.462;2022-11-20T02:07:04;4.90;99.90
9808;DHT22;4943;52.550;13.462;2022-11-20T02:09:33;4.90;99.90
9808;DHT22;4943;52.550;13.462;2022-11-20T02:12:03;4.90;99.90
9808;DHT22;4943;52.550;13.462;2022-11-20T02:14:32;4.90;99.90
9808;DHT22;4943;52.550;13.462;2022-11-20T02:16:59;4.90;99.90
9808;DHT22;4943;52.550;13.462;2022-11-20T02:19:29;4.90;99.90
9808;DHT22;4943;52.550;13.462;2022-11-20T02:22:05;4.90;99.90
9808;DHT22;4943;52.550;13.462;2022-11-20T02:24:37;4.90;99.90
9808;DHT22;4943;52.550;13.462;2022-11-20T02:27:09;4.90;99.90
9808;DHT22;4943;52.550;13.462;2022-11-20T02:29:42;4.90;99.90
9808;DHT22;4943;52.550;13.462;2022-11-20T02:32:18;4.90;99.90
9808;DHT22;4943;52.550;13.462;2022-11-20T02:34:47;4.90;99.90
9808;DHT22;4943;52.550;13.462;2022-11-20T02:37:15;4.90;99.90
9808;DHT22;4943;52.550;13.462;2022-11-20T02:39:48;4.90;99.90
9808;DHT22;4943;52.550;13.462;2022-11-20T02:42:17;4.90;99.90
9808;DHT22;4943;52.550;13.462;2022-11-20T02:44:45;4.90;99.90
9808;DHT22;4943;52.550;13.462;2022-11-20T02:47:14;4.90;99.90
9808;DHT22;4943;52.550;13.462;2022-11-20T02:49:42;4.90;99.90
9808;DHT22;4943;52.550;13.462;2022-11-20T02:52:10;4.90;99.90
9808;DHT22;4943;52.550;13.462;2022-11-20T02:54:38;4.90;99.90
9808;DHT22;4943;52.550;13.462;2022-11-20T02:57:08;4.90;99.90
9808;DHT22;4943;52.550;13.462;2022-11-20T02:59:37;4.90;99.90
9808;DHT22;4943;52.550;13.462;2022-11-20T03:02:05;5.00;99.90
9808;DHT22;4943;52.550;13.462;2022-11-20T03:04:33;4.90;99.90
9808;DHT22;4943;52.550;13.462;2022-11-20T03:07:02;4.90;99.90
9808;DHT22;4943;52.550;13.462;2022-11-20T03:09:30;4.90;99.90
9808;DHT22;4943;52.550;13.462;2022-11-20T03:11:59;5.00;99.90
9808;DHT22;4943;52.550;13.462;2022-11-20T03:14:29;4.90;99.90
9808;DHT22;4943;52.550;13.462;2022-11-20T03:16:57;4.90;99.90
9808;DHT22;4943;52.550;13.462;2022-11-20T03:19:26;4.90;99.90
9808;DHT22;4943;52.550;13.462;2022-11-20T03:21:54;4.90;99.90
9808;DHT22;4943;52.550;13.462;2022-11-20T03:24:22;4.90;99.90
9808;DHT22;4943;52.550;13.462;2022-11-20T03:26:51;4.90;99.90
9808;DHT22;4943;52.550;13.462;2022-11-20T03:29:19;4.90;99.90
9808;DHT22;4943;52.550;13.462;2022-11-20T03:31:49;4.90;99.90
9808;DHT22;4943;52.550;13.462;2022-11-20T03:34:17;4.90;99.90
9808;DHT22;4943;52.550;13.462;2022-11-20T03:36:46;4.90;99.90
9808;DHT22;4943;52.550;13.462;2022-11-20T03:39:14;4.90;99.90
9808;DHT22;4943;52.550;13.462;2022-11-20T03:41:42;4.90;99.90
9808;DHT22;4943;52.550;13.462;2022-11-20T03:44:11;4.90;99.90
9808;DHT22;4943;52.550;13.462;2022-11-20T03:46:40;4.90;99.90
9808;DHT22;4943;52.550;13.462;2022-11-20T03:49:10;4.80;99.90
9808;DHT22;4943;52.550;13.462;2022-11-20T03:51:38;4.80;99.90
9808;DHT22;4943;52.550;13.462;2022-11-20T03:54:08;4.80;99.90
9808;DHT22;4943;52.550;13.462;2022-11-20T03:56:37;4.80;99.90
9808;DHT22;4943;52.550;13.462;2022-11-20T03:59:06;4.80;99.90
9808;DHT22;4943;52.550;13.462;2022-11-20T04:01:36;4.80;99.90
9808;DHT22;4943;52.550;13.462;2022-11-20T04:04:05;4.80;99.90
9808;DHT22;4943;52.550;13.462;2022-11-20T04:06:36;4.80;99.90
9808;DHT22;4943;52.550;13.462;2022-11-20T04:09:06;4.80;99.90
9808;DHT22;4943;52.550;13.462;2022-11-20T04:11:35;4.80;99.90
9808;DHT22;4943;52.550;13.462;2022-11-20T04:14:06;4.80;99.90
9808;DHT22;4943;52.550;13.462;2022-11-20T04:16:36;4.80;99.90
9808;DHT22;4943;52.550;13.462;2022-11-20T04:19:05;4.90;99.90
9808;DHT22;4943;52.550;13.462;2022-11-20T04:21:35;4.90;99.90
9808;DHT22;4943;52.550;13.462;2022-11-20T04:24:04;4.80;99.90
9808;DHT22;4943;52.550;13.462;2022-11-20T04:26:33;4.80;99.90
9808;DHT22;4943;52.550;13.462;2022-11-20T04:29:02;4.80;99.90
9808;DHT22;4943;52.550;13.462;2022-11-20T04:31:33;4.80;99.90
9808;DHT22;4943;52.550;13.462;2022-11-20T04:34:04;4.90;99.90
9808;DHT22;4943;52.550;13.462;2022-11-20T04:36:34;4.80;99.90
9808;DHT22;4943;52.550;13.462;2022-11-20T04:39:05;4.90;99.90
9808;DHT22;4943;52.550;13.462;2022-11-20T04:41:35;4.80;99.90
9808;DHT22;4943;52.550;13.462;2022-11-20T04:44:05;4.90;99.90
9808;DHT22;4943;52.550;13.462;2022-11-20T04:46:35;4.80;99.90
9808;DHT22;4943;52.550;13.462;2022-11-20T04:49:05;4.80;99.90
9808;DHT22;4943;52.550;13.462;2022-11-20T04:51:35;4.80;99.90
9808;DHT22;4943;52.550;13.462;2022-11-20T04:54:03;4.80;99.90
9808;DHT22;4943;52.550;13.462;2022-11-20T04:56:32;4.80;99.90
9808;DHT22;4943;52.550;13.462;2022-11-20T04:59:01;4.70;99.90
9808;DHT22;4943;52.550;13.462;2022-11-20T05:01:29;4.70;99.90
9808;DHT22;4943;52.550;13.462;2022-11-20T05:03:59;4.70;99.90
9808;DHT22;4943;52.550;13.462;2022-11-20T05:06:27;4.70;99.90
9808;DHT22;4943;52.550;13.462;2022-11-20T05:08:57;4.70;99.90
9808;DHT22;4943;52.550;13.462;2022-11-20T05:11:26;4.70;99.90
9808;DHT22;4943;52.550;13.462;2022-11-20T05:13:58;4.70;99.90
9808;DHT22;4943;52.550;13.462;2022-11-20T05:16:27;4.70;99.90
9808;DHT22;4943;52.550;13.462;2022-11-20T05:18:55;4.70;99.90
9808;DHT22;4943;52.550;13.462;2022-11-20T05:21:24;4.60;99.90
9808;DHT22;4943;52.550;13.462;2022-11-20T05:23:52;4.60;99.90
9808;DHT22;4943;52.550;13.462;2022-11-20T05:26:22;4.60;99.90
9808;DHT22;4943;52.550;13.462;2022-11-20T05:28:51;4.70;99.90
9808;DHT22;4943;52.550;13.462;2022-11-20T05:31:21;4.60;99.90
9808;DHT22;4943;52.550;13.462;2022-11-20T05:33:54;4.60;99.90
9808;DHT22;4943;52.550;13.462;2022-11-20T05:36:24;4.60;99.90
9808;DHT22;4943;52.550;13.462;2022-11-20T05:38:52;4.60;99.90
9808;DHT22;4943;52.550;13.462;2022-11-20T05:41:29;4.60;99.90
9808;DHT22;4943;52.550;13.462;2022-11-20T05:43:58;4.50;99.90
9808;DHT22;4943;52.550;13.462;2022-11-20T05:46:26;4.60;99.90
9808;DHT22;4943;52.550;13.462;2022-11-20T05:48:56;4.60;99.90
9808;DHT22;4943;52.550;13.462;2022-11-20T05:51:25;4.60;99.90
9808;DHT22;4943;52.550;13.462;2022-11-20T05:53:55;4.60;99.90
9808;DHT22;4943;52.550;13.462;2022-11-20T05:56:24;4.60;99.90
9808;DHT22;4943;52.550;13.462;2022-11-20T05:58:53;4.60;99.90
9808;DHT22;4943;52.550;13.462;2022-11-20T06:01:24;4.60;99.90
9808;DHT22;4943;52.550;13.462;2022-11-20T06:03:53;4.60;99.90
9808;DHT22;4943;52.550;13.462;2022-11-20T06:06:21;4.60;99.90
9808;DHT22;4943;52.550;13.462;2022-11-20T06:08:50;4.60;99.90
9808;DHT22;4943;52.550;13.462;2022-11-20T06:11:18;4.60;99.90
9808;DHT22;4943;52.550;13.462;2022-11-20T06:13:48;4.60;99.90
9808;DHT22;4943;52.550;13.462;2022-11-20T06:16:19;4.60;99.90
9808;DHT22;4943;52.550;13.462;2022-11-20T06:18:48;4.50;99.90
9808;DHT22;4943;52.550;13.462;2022-11-20T06:21:18;4.60;99.90
9808;DHT22;4943;52.550;13.462;2022-11-20T06:23:47;4.60;99.90
9808;DHT22;4943;52.550;13.462;2022-11-20T06:26:18;4.60;99.90
9808;DHT22;4943;52.550;13.462;2022-11-20T06:28:47;4.50;99.90
9808;DHT22;4943;52.550;13.462;2022-11-20T06:31:18;4.50;99.90
9808;DHT22;4943;52.550;13.462;2022-11-20T06:33:47;4.50;99.90
9808;DHT22;4943;52.550;13.462;2022-11-20T06:36:17;4.50;99.90
9808;DHT22;4943;52.550;13.462;2022-11-20T06:38:46;4.50;99.90
9808;DHT22;4943;52.550;13.462;2022-11-20T06:41:16;4.60;99.90
9808;DHT22;4943;52.550;13.462;2022-11-20T06:43:45;4.60;99.90
9808;DHT22;4943;52.550;13.462;2022-11-20T06:46:15;4.50;99.90
9808;DHT22;4943;52.550;13.462;2022-11-20T06:48:45;4.50;99.90
9808;DHT22;4943;52.550;13.462;2022-11-20T06:51:14;4.50;99.90
9808;DHT22;4943;52.550;13.462;2022-11-20T06:53:42;4.50;99.90
9808;DHT22;4943;52.550;13.462;2022-11-20T06:56:11;4.60;99.90
9808;DHT22;4943;52.550;13.462;2022-11-20T06:58:39;4.50;99.90
9808;DHT22;4943;52.550;13.462;2022-11-20T07:01:09;4.60;99.90
9808;DHT22;4943;52.550;13.462;2022-11-20T07:03:38;4.60;99.90
9808;DHT22;4943;52.550;13.462;2022-11-20T07:06:09;4.50;99.90
9808;DHT22;4943;52.550;13.462;2022-11-20T07:08:37;4.50;99.90
9808;DHT22;4943;52.550;13.462;2022-11-20T07:11:06;4.50;99.90
9808;DHT22;4943;52.550;13.462;2022-11-20T07:13:35;4.60;99.90
9808;DHT22;4943;52.550;13.462;2022-11-20T07:16:05;4.60;99.90
9808;DHT22;4943;52.550;13.462;2022-11-20T07:18:34;4.60;99.90
9808;DHT22;4943;52.550;13.462;2022-11-20T07:21:03;4.60;99.90
9808;DHT22;4943;52.550;13.462;2022-11-20T07:23:33;4.60;99.90
9808;DHT22;4943;52.550;13.462;2022-11-20T07:26:03;4.60;99.90
9808;DHT22;4943;52.550;13.462;2022-11-20T07:28:32;4.60;99.90
9808;DHT22;4943;52.550;13.462;2022-11-20T07:31:00;4.60;99.90
9808;DHT22;4943;52.550;13.462;2022-11-20T07:33:29;4.50;99.90
9808;DHT22;4943;52.550;13.462;2022-11-20T07:35:58;4.50;99.90
9808;DHT22;4943;52.550;13.462;2022-11-20T07:38:33;4.50;99.90
9808;DHT22;4943;52.550;13.462;2022-11-20T07:41:01;4.60;99.90
9808;DHT22;4943;52.550;13.462;2022-11-20T07:43:30;4.60;99.90
9808;DHT22;4943;52.550;13.462;2022-11-20T07:46:05;4.60;99.90
9808;DHT22;4943;52.550;13.462;2022-11-20T07:48:33;4.70;99.90
9808;DHT22;4943;52.550;13.462;2022-11-20T07:51:02;4.70;99.90
9808;DHT22;4943;52.550;13.462;2022-11-20T07:53:30;4.70;99.90
9808;DHT22;4943;52.550;13.462;2022-11-20T07:56:01;4.80;99.90
9808;DHT22;4943;52.550;13.462;2022-11-20T07:58:30;4.80;99.90
9808;DHT22;4943;52.550;13.462;2022-11-20T08:01:03;4.80;99.90
9808;DHT22;4943;52.550;13.462;2022-11-20T08:03:32;4.80;99.90
9808;DHT22;4943;52.550;13.462;2022-11-20T08:06:01;4.80;99.90
9808;DHT22;4943;52.550;13.462;2022-11-20T08:08:29;4.80;99.90
9808;DHT22;4943;52.550;13.462;2022-11-20T08:11:02;4.90;99.90
9808;DHT22;4943;52.550;13.462;2022-11-20T08:13:47;4.90;99.90
9808;DHT22;4943;52.550;13.462;2022-11-20T08:16:33;4.90;99.90
9808;DHT22;4943;52.550;13.462;2022-11-20T08:19:01;5.00;99.90
9808;DHT22;4943;52.550;13.462;2022-11-20T08:21:30;5.00;99.90
9808;DHT22;4943;52.550;13.462;2022-11-20T08:24:05;5.10;99.90
9808;DHT22;4943;52.550;13.462;2022-11-20T08:26:35;5.10;99.90
9808;DHT22;4943;52.550;13.462;2022-11-20T08:29:04;5.10;99.90
9808;DHT22;4943;52.550;13.462;2022-11-20T08:31:33;5.10;99.90
9808;DHT22;4943;52.550;13.462;2022-11-20T08:34:01;5.10;99.90
9808;DHT22;4943;52.550;13.462;2022-11-20T08:36:35;5.10;99.90
9808;DHT22;4943;52.550;13.462;2022-11-20T08:39:03;5.10;99.90
9808;DHT22;4943;52.550;13.462;2022-11-20T08:41:33;5.00;99.90
9808;DHT22;4943;52.550;13.462;2022-11-20T08:44:05;5.10;99.90
9808;DHT22;4943;52.550;13.462;2022-11-20T08:46:35;5.10;99.90
9808;DHT22;4943;52.550;13.462;2022-11-20T08:49:04;5.10;99.90
9808;DHT22;4943;52.550;13.462;2022-11-20T08:51:33;5.10;99.90
9808;DHT22;4943;52.550;13.462;2022-11-20T08:54:02;5.20;99.90
9808;DHT22;4943;52.550;13.462;2022-11-20T08:56:30;5.20;99.90
9808;DHT22;4943;52.550;13.462;2022-11-20T08:59:01;5.30;99.90
9808;DHT22;4943;52.550;13.462;2022-11-20T09:01:49;5.40;99.90
9808;DHT22;4943;52.550;13.462;2022-11-20T09:04:18;5.40;99.90
9808;DHT22;4943;52.550;13.462;2022-11-20T09:06:46;5.40;99.90
9808;DHT22;4943;52.550;13.462;2022-11-20T09:09:17;5.50;99.90
9808;DHT22;4943;52.550;13.462;2022-11-20T09:11:47;5.50;99.90
9808;DHT22;4943;52.550;13.462;2022-11-20T09:14:18;5.50;99.90
9808;DHT22;4943;52.550;13.462;2022-11-20T09:16:46;5.60;99.90
9808;DHT22;4943;52.550;13.462;2022-11-20T09:19:14;5.60;99.90
9808;DHT22;4943;52.550;13.462;2022-11-20T09:22:03;5.50;99.90
9808;DHT22;4943;52.550;13.462;2022-11-20T09:24:31;5.50;99.90
9808;DHT22;4943;52.550;13.462;2022-11-20T09:27:02;5.50;99.90
9808;DHT22;4943;52.550;13.462;2022-11-20T09:29:32;5.60;99.90
9808;DHT22;4943;52.550;13.462;2022-11-20T09:32:00;5.60;99.90
9808;DHT22;4943;52.550;13.462;2022-11-20T09:34:28;5.70;99.90
9808;DHT22;4943;52.550;13.462;2022-11-20T09:36:57;5.80;99.90
9808;DHT22;4943;52.550;13.462;2022-11-20T09:39:31;5.80;99.90
9808;DHT22;4943;52.550;13.462;2022-11-20T09:42:12;5.90;99.90
9808;DHT22;4943;52.550;13.462;2022-11-20T09:45:01;5.90;99.90
9808;DHT22;4943;52.550;13.462;2022-11-20T09:47:42;6.00;99.90
9808;DHT22;4943;52.550;13.462;2022-11-20T09:50:23;6.00;99.90
9808;DHT22;4943;52.550;13.462;2022-11-20T09:53:03;6.10;99.90
9808;DHT22;4943;52.550;13.462;2022-11-20T09:55:37;6.10;99.90
9808;DHT22;4943;52.550;13.462;2022-11-20T09:58:07;6.10;99.90
9808;DHT22;4943;52.550;13.462;2022-11-20T10:00:37;6.10;99.90
9808;DHT22;4943;52.550;13.462;2022-11-20T10:03:13;6.20;99.90
9808;DHT22;4943;52.550;13.462;2022-11-20T10:05:44;6.30;99.90
9808;DHT22;4943;52.550;13.462;2022-11-20T10:08:17;6.40;99.90
9808;DHT22;4943;52.550;13.462;2022-11-20T10:10:52;6.50;99.90
9808;DHT22;4943;52.550;13.462;2022-11-20T10:13:30;6.60;99.90
9808;DHT22;4943;52.550;13.462;2022-11-20T10:16:20;6.70;99.90
9808;DHT22;4943;52.550;13.462;2022-11-20T10:19:02;6.70;99.90
9808;DHT22;4943;52.550;13.462;2022-11-20T10:21:41;6.70;99.90
9808;DHT22;4943;52.550;13.462;2022-11-20T10:24:36;6.70;99.90
9808;DHT22;4943;52.550;13.462;2022-11-20T10:27:26;6.70;99.90
9808;DHT22;4943;52.550;13.462;2022-11-20T10:30:01;6.70;99.90
9808;DHT22;4943;52.550;13.462;2022-11-20T10:32:36;6.70;99.90
9808;DHT22;4943;52.550;13.462;2022-11-20T10:35:14;6.70;99.90
9808;DHT22;4943;52.550;13.462;2022-11-20T10:37:45;6.70;99.90
9808;DHT22;4943;52.550;13.462;2022-11-20T10:40:21;6.70;99.90
9808;DHT22;4943;52.550;13.462;2022-11-20T10:42:52;6.70;99.90
9808;DHT22;4943;52.550;13.462;2022-11-20T10:45:33;6.70;99.90
9808;DHT22;4943;52.550;13.462;2022-11-20T10:48:16;6.80;99.90
9808;DHT22;4943;52.550;13.462;2022-11-20T10:50:54;6.80;99.90
9808;DHT22;4943;52.550;13.462;2022-11-20T10:53:37;6.70;99.90
9808;DHT22;4943;52.550;13.462;2022-11-20T10:56:17;6.70;99.90
9808;DHT22;4943;52.550;13.462;2022-11-20T10:58:56;6.70;99.90
9808;DHT22;4943;52.550;13.462;2022-11-20T11:01:26;6.70;99.90
9808;DHT22;4943;52.550;13.462;2022-11-20T11:03:57;6.80;99.90
9808;DHT22;4943;52.550;13.462;2022-11-20T11:06:31;6.90;99.90
9808;DHT22;4943;52.550;13.462;2022-11-20T11:09:09;7.10;99.90
9808;DHT22;4943;52.550;13.462;2022-11-20T11:11:39;7.30;99.90
9808;DHT22;4943;52.550;13.462;2022-11-20T11:14:10;7.40;99.90
9808;DHT22;4943;52.550;13.462;2022-11-20T11:16:48;7.50;99.90
9808;DHT22;4943;52.550;13.462;2022-11-20T11:19:19;7.50;99.90
9808;DHT22;4943;52.550;13.462;2022-11-20T11:21:50;7.50;99.90
9808;DHT22;4943;52.550;13.462;2022-11-20T11:24:23;7.40;99.90
9808;DHT22;4943;52.550;13.462;2022-11-20T11:27:12;7.40;99.90
9808;DHT22;4943;52.550;13.462;2022-11-20T11:29:45;7.30;99.90
9808;DHT22;4943;52.550;13.462;2022-11-20T11:32:15;7.20;99.90
9808;DHT22;4943;52.550;13.462;2022-11-20T11:34:45;7.10;99.90
9808;DHT22;4943;52.550;13.462;2022-11-20T11:37:17;7.10;99.90
9808;DHT22;4943;52.550;13.462;2022-11-20T11:39:48;7.10;99.90
9808;DHT22;4943;52.550;13.462;2022-11-20T11:42:41;7.10;99.90
9808;DHT22;4943;52.550;13.462;2022-11-20T11:45:14;7.10;99.90
9808;DHT22;4943;52.550;13.462;2022-11-20T11:47:45;7.10;99.90
9808;DHT22;4943;52.550;13.462;2022-11-20T11:50:19;7.00;99.90
9808;DHT22;4943;52.550;13.462;2022-11-20T11:52:54;7.00;99.90
9808;DHT22;4943;52.550;13.462;2022-11-20T11:55:31;7.00;99.90
9808;DHT22;4943;52.550;13.462;2022-11-20T11:58:11;6.90;99.90
9808;DHT22;4943;52.550;13.462;2022-11-20T12:00:50;6.90;99.90
9808;DHT22;4943;52.550;13.462;2022-11-20T12:03:22;6.90;99.90
9808;DHT22;4943;52.550;13.462;2022-11-20T12:05:57;6.80;99.90
9808;DHT22;4943;52.550;13.462;2022-11-20T12:08:31;6.70;99.90
9808;DHT22;4943;52.550;13.462;2022-11-20T12:11:04;6.60;99.90
9808;DHT22;4943;52.550;13.462;2022-11-20T12:13:44;6.60;99.90
9808;DHT22;4943;52.550;13.462;2022-11-20T12:16:18;6.60;99.90
9808;DHT22;4943;52.550;13.462;2022-11-20T12:18:49;6.60;99.90
9808;DHT22;4943;52.550;13.462;2022-11-20T12:21:27;6.60;99.90
9808;DHT22;4943;52.550;13.462;2022-11-20T12:24:11;6.60;99.90
9808;DHT22;4943;52.550;13.462;2022-11-20T12:26:54;6.60;99.90
9808;DHT22;4943;52.550;13.462;2022-11-20T12:29:37;6.50;99.90
9808;DHT22;4943;52.550;13.462;2022-11-20T12:35:28;6.40;99.90
9808;DHT22;4943;52.550;13.462;2022-11-20T12:38:14;6.40;99.90
9808;DHT22;4943;52.550;13.462;2022-11-20T12:40:52;6.30;99.90
9808;DHT22;4943;52.550;13.462;2022-11-20T12:43:24;6.30;99.90
9808;DHT22;4943;52.550;13.462;2022-11-20T12:46:18;6.40;99.90
9808;DHT22;4943;52.550;13.462;2022-11-20T12:48:59;6.40;99.90
9808;DHT22;4943;52.550;13.462;2022-11-20T12:51:42;6.30;99.90
9808;DHT22;4943;52.550;13.462;2022-11-20T12:54:33;6.40;99.90
9808;DHT22;4943;52.550;13.462;2022-11-20T12:57:09;6.40;99.90
9808;DHT22;4943;52.550;13.462;2022-11-20T12:59:55;6.40;99.90
9808;DHT22;4943;52.550;13.462;2022-11-20T13:02:37;6.40;99.90
9808;DHT22;4943;52.550;13.462;2022-11-20T13:05:18;6.40;99.90
9808;DHT22;4943;52.550;13.462;2022-11-20T13:07:47;6.40;99.90
9808;DHT22;4943;52.550;13.462;2022-11-20T13:10:25;6.30;99.90
9808;DHT22;4943;52.550;13.462;2022-11-20T13:12:56;6.40;99.90
9808;DHT22;4943;52.550;13.462;2022-11-20T13:15:36;6.40;99.90
9808;DHT22;4943;52.550;13.462;2022-11-20T13:18:10;6.40;99.90
9808;DHT22;4943;52.550;13.462;2022-11-20T13:20:42;6.50;99.90
9808;DHT22;4943;52.550;13.462;2022-11-20T13:23:22;6.60;99.90
9808;DHT22;4943;52.550;13.462;2022-11-20T13:26:03;6.70;99.90
9808;DHT22;4943;52.550;13.462;2022-11-20T13:28:32;6.80;99.90
9808;DHT22;4943;52.550;13.462;2022-11-20T13:31:00;6.80;99.90
9808;DHT22;4943;52.550;13.462;2022-11-20T13:33:31;6.80;99.90
9808;DHT22;4943;52.550;13.462;2022-11-20T13:36:01;6.80;99.90
9808;DHT22;4943;52.550;13.462;2022-11-20T13:38:42;6.80;99.90
9808;DHT22;4943;52.550;13.462;2022-11-20T13:41:23;6.70;99.90
9808;DHT22;4943;52.550;13.462;2022-11-20T13:44:10;6.70;99.90
9808;DHT22;4943;52.550;13.462;2022-11-20T13:46:42;6.60;99.90
9808;DHT22;4943;52.550;13.462;2022-11-20T13:49:18;6.50;99.90
9808;DHT22;4943;52.550;13.462;2022-11-20T13:51:50;6.50;99.90
9808;DHT22;4943;52.550;13.462;2022-11-20T13:54:50;6.40;99.90
9808;DHT22;4943;52.550;13.462;2022-11-20T13:57:39;6.40;99.90
9808;DHT22;4943;52.550;13.462;2022-11-20T14:00:12;6.40;99.90
9808;DHT22;4943;52.550;13.462;2022-11-20T14:02:41;6.40;99.90
9808;DHT22;4943;52.550;13.462;2022-11-20T14:05:19;6.30;99.90
9808;DHT22;4943;52.550;13.462;2022-11-20T14:07:50;6.30;99.90
9808;DHT22;4943;52.550;13.462;2022-11-20T14:10:21;6.20;99.90
9808;DHT22;4943;52.550;13.462;2022-11-20T14:12:58;6.10;99.90
9808;DHT22;4943;52.550;13.462;2022-11-20T14:15:37;6.00;99.90
9808;DHT22;4943;52.550;13.462;2022-11-20T14:18:18;6.00;99.90
9808;DHT22;4943;52.550;13.462;2022-11-20T14:20:48;6.00;99.90
9808;DHT22;4943;52.550;13.462;2022-11-20T14:23:25;5.90;99.90
9808;DHT22;4943;52.550;13.462;2022-11-20T14:25:56;5.80;99.90
9808;DHT22;4943;52.550;13.462;2022-11-20T14:28:28;5.70;99.90
9808;DHT22;4943;52.550;13.462;2022-11-20T14:30:57;5.60;99.90
9808;DHT22;4943;52.550;13.462;2022-11-20T14:33:26;5.60;99.90
9808;DHT22;4943;52.550;13.462;2022-11-20T14:35:56;5.60;99.90
9808;DHT22;4943;52.550;13.462;2022-11-20T14:38:27;5.50;99.90
9808;DHT22;4943;52.550;13.462;2022-11-20T14:41:06;5.40;99.90
9808;DHT22;4943;52.550;13.462;2022-11-20T14:43:36;5.40;99.90
9808;DHT22;4943;52.550;13.462;2022-11-20T14:46:07;5.40;99.90
9808;DHT22;4943;52.550;13.462;2022-11-20T14:48:39;5.40;99.90
9808;DHT22;4943;52.550;13.462;2022-11-20T14:51:09;5.50;99.90
9808;DHT22;4943;52.550;13.462;2022-11-20T14:53:38;5.50;99.90
9808;DHT22;4943;52.550;13.462;2022-11-20T14:56:08;5.60;99.90
9808;DHT22;4943;52.550;13.462;2022-11-20T14:58:38;5.60;99.90
9808;DHT22;4943;52.550;13.462;2022-11-20T15:01:11;5.60;99.90
9808;DHT22;4943;52.550;13.462;2022-11-20T15:03:41;5.60;99.90
9808;DHT22;4943;52.550;13.462;2022-11-20T15:06:11;5.60;99.90
9808;DHT22;4943;52.550;13.462;2022-11-20T15:08:50;5.60;99.90
9808;DHT22;4943;52.550;13.462;2022-11-20T15:11:22;5.60;99.90
9808;DHT22;4943;52.550;13.462;2022-11-20T15:13:53;5.60;99.90
9808;DHT22;4943;52.550;13.462;2022-11-20T15:16:22;5.70;99.90
9808;DHT22;4943;52.550;13.462;2022-11-20T15:18:51;5.70;99.90
9808;DHT22;4943;52.550;13.462;2022-11-20T15:21:20;5.70;99.90
9808;DHT22;4943;52.550;13.462;2022-11-20T15:23:49;5.60;99.90
9808;DHT22;4943;52.550;13.462;2022-11-20T15:26:22;5.60;99.90
9808;DHT22;4943;52.550;13.462;2022-11-20T15:28:53;5.60;99.90
9808;DHT22;4943;52.550;13.462;2022-11-20T15:31:23;5.60;99.90
9808;DHT22;4943;52.550;13.462;2022-11-20T15:33:51;5.60;99.90
9808;DHT22;4943;52.550;13.462;2022-11-20T15:36:20;5.60;99.90
9808;DHT22;4943;52.550;13.462;2022-11-20T15:38:48;5.60;99.90
9808;DHT22;4943;52.550;13.462;2022-11-20T15:41:17;5.60;99.90
9808;DHT22;4943;52.550;13.462;2022-11-20T15:43:45;5.60;99.90
9808;DHT22;4943;52.550;13.462;2022-11-20T15:46:16;5.60;99.90
9808;DHT22;4943;52.550;13.462;2022-11-20T15:48:46;5.60;99.90
9808;DHT22;4943;52.550;13.462;2022-11-20T15:51:24;5.60;99.90
9808;DHT22;4943;52.550;13.462;2022-11-20T15:53:54;5.60;99.90
9808;DHT22;4943;52.550;13.462;2022-11-20T15:56:22;5.50;99.90
9808;DHT22;4943;52.550;13.462;2022-11-20T15:58:51;5.50;99.90
9808;DHT22;4943;52.550;13.462;2022-11-20T16:01:22;5.50;99.90
9808;DHT22;4943;52.550;13.462;2022-11-20T16:03:50;5.50;99.90
9808;DHT22;4943;52.550;13.462;2022-11-20T16:06:18;5.40;99.90
9808;DHT22;4943;52.550;13.462;2022-11-20T16:08:47;5.40;99.90
9808;DHT22;4943;52.550;13.462;2022-11-20T16:11:16;5.30;99.90
9808;DHT22;4943;52.550;13.462;2022-11-20T16:13:45;5.30;99.90
9808;DHT22;4943;52.550;13.462;2022-11-20T16:16:33;5.20;99.90
9808;DHT22;4943;52.550;13.462;2022-11-20T16:19:02;5.10;99.90
9808;DHT22;4943;52.550;13.462;2022-11-20T16:21:31;5.00;99.90
9808;DHT22;4943;52.550;13.462;2022-11-20T16:24:00;5.00;99.90
9808;DHT22;4943;52.550;13.462;2022-11-20T16:26:29;4.90;99.90
9808;DHT22;4943;52.550;13.462;2022-11-20T16:28:58;4.80;99.90
9808;DHT22;4943;52.550;13.462;2022-11-20T16:31:27;4.70;99.90
9808;DHT22;4943;52.550;13.462;2022-11-20T16:34:00;4.70;99.90
9808;DHT22;4943;52.550;13.462;2022-11-20T16:36:35;4.60;99.90